eascensao

  • Mensagens: 321
@ruijacome
@brunodias

Tanto quanto sei foi por (falta de) visibilidade e/ou tectos baixos ...

As duas primeiras tentativas de aproximação foram entre as 0915 e as 0930 :
LPCS 050900Z 17011KT 7000 2500NW SCT003 BKN010 14/14 Q1016
LPCS 050930Z 16011KT 3000 BR           SCT003 BKN008 14/14 Q1016
LPCS 051000Z 17011KT 8000 3000N     SCT003 BKN012 15/14 Q1016

As outras três tentativas de aproximação foram entre as 1225 e as 1300 :
LPCS 051200Z 18013KT                 8000 2500N                    SCT003 BKN012 15/15 Q1015
LPCS 051230Z 19015KT 170V230 2000              -DZRA BR BKN003 BKN010 15/15 Q1015
LPCS 051300Z 19015KT                 6000 2000N  -DZRA BR SCT003 BKN005 15/15 Q1015

Hawks

  • Mensagens: 684
O que se passa em Lisboa? Alguns borregos e muitos voos a divergir para OPO e FAO.

AvGeekDiogo

  • Mensagens: 969
  • LHR/EGLL
    • Instagram das minhas fotos de Plane Spotting
Estão a fazer uma inspeção a pista. Última aterrar foi o Eurowings. Uns comentários num group do Facebook dizem que é pedaços de borracha na pista..

RazeR550

  • Mensagens: 68
Inspeção demorada, não levanta nem aterra nada. Alguns em holding, incluindo o 777 da Emirates e várias diversões para OPO e FAO.

Rafael6

  • Mensagens: 376
A pista 35 estará mesmo inoperacional? É também nestes casos que ela dava jeito

AvGeekDiogo

  • Mensagens: 969
  • LHR/EGLL
    • Instagram das minhas fotos de Plane Spotting
Q) LPPC/QFALC/IV/NBO /A /000/999/3846N00908W
A) LPPT
B) 19/04/12 11:25 C) 19/04/12 12:00
E) AERODROME CLSD.

Segundo o NOTAM, está fechado até 12:00Z (13:00LT).

milvas.ms

  • Mensagens: 16
E parece que o 777 da Emirates vai até ao Porto!
Spotter's, preparem as câmaras xD

Bremem

  • Mensagens: 408
Há pelo menos 1 hora que não aterra nem descola um avião, visto daqui da porta de embarque só vejo viaturas de emergência na pista a fazer inspeção.
« Última modificação: 12 de Abril 2019, 13:06:48 por Bremem »


Faro1910

  • Mensagens: 280
    • És de Faro, és Farense
Vários aviões desviados de LIS para FAO...

Hawks

  • Mensagens: 684
Analisando o FR houve 2 borregos "em cima da pista". O problema não foi logo identificado?

johnkarva

  • Mensagens: 5
Um deles ja estava a subir quando passou pelas Amoreiras, portanto ja devia ter sido identificado, sim.

GoncaloRibas

  • Mensagens: 463
Descolou agora um B767 da EuroAtlantic

lockheed

  • Mensagens: 1214
  • You are not in Kansas anymore!...

GoncaloRibas

  • Mensagens: 463
Confere, ja reabriu, mas o pessoal do Porto teve uma bela surpresa antecipada....

RazeR550

  • Mensagens: 68
Segundo o Observador que cita fonte da NAV rebentou um pneu durante uma aterragem.
Qual foi a última aeronave a aterrar?

Resposta rápida

Com a resposta rápida pode escrever uma mensagem quando está a ver um tópico sem carregar uma nova página. Pode, ainda, usar o código BBC e os risonhos como usaria numa mensagem normal.

Nota: esta mensagem não irá aparecer até ter sido aprovada por um moderador.
Nome: Email:
Verificação:

 
Total 100+1=101 ms, db 0 ms, php 101 ms